Time;durP1;ratioP1;P1;durP2;ratioP2;P2;SDS_P1;SDS_P2;PMS_P1;PMS_P2;Temp;Humidity;BMP_temperature;BMP_pressure;BME280_temperature;BME280_humidity;BME280_pressure;Samples;Min_cycle;Max_cycle;Signal;HPM_P1;HPM_P2
2021/12/06 00:00:28;;;;;;;0.22;0.22;;;8.10;99.90;;;;;;5052563;28;20037;-82
2021/12/06 00:02:57;;;;;;;0.00;0.00;;;8.10;99.90;;;;;;5053135;28;20385;-82
2021/12/06 00:05:26;;;;;;;0.00;0.00;;;8.10;99.90;;;;;;5052796;28;20033;-82
2021/12/06 00:07:52;;;;;;;0.85;0.55;;;8.10;99.90;;;;;;5052951;28;20021;-82
2021/12/06 00:10:18;;;;;;;0.17;0.17;;;8.10;99.90;;;;;;5053218;28;20079;-82
2021/12/06 00:12:44;;;;;;;1.95;0.98;;;8.00;99.90;;;;;;5052995;28;20032;-82
2021/12/06 00:15:11;;;;;;;0.30;0.30;;;8.00;99.90;;;;;;5052558;28;20028;-82
2021/12/06 00:17:37;;;;;;;0.00;0.00;;;7.90;99.90;;;;;;5052577;28;20022;-82
2021/12/06 00:20:06;;;;;;;0.00;0.00;;;7.90;99.90;;;;;;5052300;28;20033;-82
2021/12/06 00:22:32;;;;;;;0.45;0.45;;;7.90;99.90;;;;;;5051780;28;20021;-82
2021/12/06 00:24:58;;;;;;;2.75;1.35;;;7.80;99.90;;;;;;5052981;28;20396;-82
2021/12/06 00:27:25;;;;;;;0.00;0.00;;;7.90;99.90;;;;;;5052449;28;20504;-81
2021/12/06 00:29:52;;;;;;;0.00;0.00;;;7.90;99.90;;;;;;5053088;28;20126;-82
2021/12/06 00:32:19;;;;;;;0.00;0.00;;;7.80;99.90;;;;;;5051775;28;20387;-82
2021/12/06 00:34:45;;;;;;;0.00;0.00;;;7.90;99.90;;;;;;5053026;28;20480;-82
2021/12/06 00:37:21;;;;;;;0.00;0.00;;;7.80;99.90;;;;;;5052713;28;20024;-82
2021/12/06 00:39:54;;;;;;;0.32;0.32;;;7.80;99.90;;;;;;5052923;28;20361;-82
2021/12/06 00:42:22;;;;;;;0.00;0.00;;;7.90;99.90;;;;;;5052513;28;20075;-82
2021/12/06 00:44:48;;;;;;;0.00;0.00;;;7.80;99.90;;;;;;5051363;28;20035;-82
2021/12/06 00:47:14;;;;;;;0.00;0.00;;;7.80;99.90;;;;;;5053155;28;20025;-82
2021/12/06 00:49:40;;;;;;;0.15;0.15;;;7.80;99.90;;;;;;5052438;28;20480;-81
2021/12/06 00:52:07;;;;;;;0.00;0.00;;;7.80;99.90;;;;;;5052748;28;20029;-82
2021/12/06 00:54:35;;;;;;;0.00;0.00;;;7.90;99.90;;;;;;5052316;28;20029;-82
2021/12/06 00:57:06;;;;;;;3.50;1.75;;;7.80;99.90;;;;;;5052189;28;20523;-82
2021/12/06 00:59:31;;;;;;;0.00;0.00;;;7.80;99.90;;;;;;5051002;28;20124;-82
2021/12/06 01:02:00;;;;;;;0.00;0.00;;;7.70;99.90;;;;;;5052097;28;20084;-82
2021/12/06 01:04:29;;;;;;;0.13;0.13;;;7.70;99.90;;;;;;5052342;28;20104;-83
2021/12/06 01:06:54;;;;;;;0.00;0.00;;;7.70;99.90;;;;;;5052550;28;20395;-82
2021/12/06 01:09:20;;;;;;;0.00;0.00;;;7.70;99.90;;;;;;5050487;28;20035;-82
2021/12/06 01:11:46;;;;;;;0.03;0.03;;;7.70;99.90;;;;;;5051157;28;20024;-82
2021/12/06 01:14:11;;;;;;;1.20;0.85;;;7.80;99.90;;;;;;5051920;28;20028;-81
2021/12/06 01:16:37;;;;;;;0.00;0.00;;;7.90;99.90;;;;;;5050970;28;20074;-82
2021/12/06 01:19:03;;;;;;;0.15;0.15;;;7.90;99.90;;;;;;5051561;28;20499;-82
2021/12/06 01:22:00;;;;;;;2.92;1.27;;;8.00;99.90;;;;;;5051990;28;20032;-82
2021/12/06 01:24:18;;;;;;;0.30;0.30;;;8.00;99.90;;;;;;5051507;28;20125;-82
2021/12/06 01:39:45;;;;;;;0.38;0.22;;;8.10;99.90;;;;;;5035965;28;20591;-82
2021/12/06 01:42:11;;;;;;;0.22;0.22;;;8.10;99.90;;;;;;5034345;28;20033;-82
2021/12/06 01:44:44;;;;;;;0.75;0.47;;;8.10;99.90;;;;;;5035653;28;20083;-82
2021/12/06 01:47:14;;;;;;;0.00;0.00;;;8.20;99.90;;;;;;5035470;28;20404;-82
2021/12/06 01:49:44;;;;;;;0.43;0.43;;;8.20;99.90;;;;;;5035108;28;20025;-82
2021/12/06 01:52:14;;;;;;;0.00;0.00;;;8.20;99.90;;;;;;5035344;28;20031;-82
2021/12/06 01:54:40;;;;;;;0.00;0.00;;;8.20;99.90;;;;;;5036328;28;20029;-82
2021/12/06 01:57:07;;;;;;;0.03;0.03;;;8.10;99.90;;;;;;5035522;28;20075;-82
2021/12/06 01:59:32;;;;;;;0.15;0.15;;;8.10;99.90;;;;;;5051050;28;20108;-82
2021/12/06 02:01:58;;;;;;;0.00;0.00;;;8.10;99.90;;;;;;5054650;28;20714;-82
2021/12/06 02:04:26;;;;;;;0.00;0.00;;;8.00;99.90;;;;;;5054782;28;20036;-82
2021/12/06 02:06:52;;;;;;;0.65;0.55;;;8.00;99.90;;;;;;5044306;28;20017;-82
2021/12/06 02:09:19;;;;;;;0.25;0.25;;;7.90;99.90;;;;;;5035038;28;20029;-82
2021/12/06 02:11:45;;;;;;;0.00;0.00;;;7.90;99.90;;;;;;5035345;28;20021;-82
2021/12/06 02:17:03;;;;;;;0.00;0.00;;;8.00;99.90;;;;;;5034887;28;20037;-82
2021/12/06 02:19:33;;;;;;;0.10;0.10;;;8.00;99.90;;;;;;5035216;28;20026;-82
2021/12/06 02:22:01;;;;;;;0.00;0.00;;;8.00;99.90;;;;;;5035197;28;20028;-82
2021/12/06 02:24:28;;;;;;;0.00;0.00;;;8.00;99.90;;;;;;5034655;28;20029;-82
2021/12/06 02:26:54;;;;;;;0.93;0.93;;;8.00;99.90;;;;;;5052828;28;20049;-82
2021/12/06 02:29:21;;;;;;;0.00;0.00;;;8.00;99.90;;;;;;5054895;28;20427;-81
2021/12/06 02:31:47;;;;;;;0.00;0.00;;;8.00;99.90;;;;;;5054985;28;20041;-82
2021/12/06 02:34:13;;;;;;;0.47;0.47;;;8.00;99.90;;;;;;5051601;28;20028;-82
2021/12/06 02:36:39;;;;;;;0.10;0.10;;;7.90;99.90;;;;;;5054382;28;20026;-82
2021/12/06 02:39:10;;;;;;;0.15;0.15;;;7.80;99.90;;;;;;5054639;28;20509;-82
2021/12/06 02:41:37;;;;;;;0.00;0.00;;;7.70;99.90;;;;;;5054475;28;20029;-82
2021/12/06 02:44:03;;;;;;;0.00;0.00;;;7.60;99.90;;;;;;5054526;28;20049;-82
2021/12/06 02:46:29;;;;;;;0.00;0.00;;;7.60;99.90;;;;;;5053044;28;20036;-82
2021/12/06 02:48:55;;;;;;;0.63;0.63;;;7.60;99.90;;;;;;5053991;28;20033;-81
2021/12/06 02:51:21;;;;;;;1.45;0.90;;;7.50;99.90;;;;;;5054234;28;20399;-82
2021/12/06 02:53:48;;;;;;;0.08;0.08;;;7.50;99.90;;;;;;5054039;28;20043;-82
2021/12/06 02:56:29;;;;;;;0.00;0.00;;;7.40;99.90;;;;;;5054106;28;20037;-82
2021/12/06 02:58:56;;;;;;;0.00;0.00;;;7.40;99.90;;;;;;5054049;28;20154;-82
2021/12/06 03:01:29;;;;;;;5.93;1.75;;;7.30;99.90;;;;;;5053493;28;20048;-82
2021/12/06 03:03:55;;;;;;;1.98;0.75;;;7.30;99.90;;;;;;5054052;28;20021;-82
2021/12/06 03:06:21;;;;;;;4.90;1.55;;;7.30;99.90;;;;;;5054006;28;20040;-82
2021/12/06 03:09:03;;;;;;;4.95;1.52;;;7.40;99.90;;;;;;5053691;28;20028;-82
2021/12/06 03:11:34;;;;;;;3.72;0.40;;;7.30;99.90;;;;;;5053765;28;20017;-82
2021/12/06 03:14:00;;;;;;;0.00;0.00;;;7.30;99.90;;;;;;5054057;28;20036;-83
2021/12/06 03:16:27;;;;;;;0.00;0.00;;;7.30;99.90;;;;;;5053688;28;20112;-82
2021/12/06 03:18:54;;;;;;;0.00;0.00;;;7.30;99.90;;;;;;5053229;28;20087;-82
2021/12/06 03:21:21;;;;;;;0.20;0.20;;;7.30;99.90;;;;;;5053442;28;20071;-82
2021/12/06 03:23:47;;;;;;;0.00;0.00;;;7.20;99.90;;;;;;5053548;28;20029;-82
2021/12/06 03:26:13;;;;;;;0.00;0.00;;;7.20;99.90;;;;;;5053424;28;20053;-82
2021/12/06 03:28:42;;;;;;;0.00;0.00;;;7.20;99.90;;;;;;5053572;28;20033;-82
2021/12/06 03:31:09;;;;;;;0.00;0.00;;;7.20;99.90;;;;;;5053324;28;20108;-82
2021/12/06 03:33:37;;;;;;;4.80;1.55;;;7.20;99.90;;;;;;5051696;28;20492;-82
2021/12/06 03:36:05;;;;;;;0.00;0.00;;;7.20;99.90;;;;;;5053524;28;20115;-82
2021/12/06 03:38:31;;;;;;;0.22;0.22;;;7.20;99.90;;;;;;5053564;28;20411;-82
2021/12/06 03:40:57;;;;;;;0.00;0.00;;;7.20;99.90;;;;;;5053342;28;20079;-81
2021/12/06 03:43:23;;;;;;;0.00;0.00;;;7.20;99.90;;;;;;5053439;28;20472;-82
2021/12/06 03:45:49;;;;;;;0.65;0.45;;;7.20;99.90;;;;;;5053542;28;20055;-82
2021/12/06 03:48:15;;;;;;;1.75;0.43;;;7.10;99.90;;;;;;5052934;28;20110;-82
2021/12/06 03:50:41;;;;;;;0.00;0.00;;;7.10;99.90;;;;;;5053333;28;20115;-83
2021/12/06 03:53:06;;;;;;;0.17;0.17;;;7.00;99.90;;;;;;5051578;28;20403;-82
2021/12/06 03:55:32;;;;;;;0.00;0.00;;;7.00;99.90;;;;;;5053006;28;20456;-82
2021/12/06 03:57:58;;;;;;;0.43;0.43;;;6.90;99.90;;;;;;5052375;28;20049;-82
2021/12/06 04:00:23;;;;;;;1.55;1.45;;;6.90;99.90;;;;;;5052527;28;20033;-82
2021/12/06 04:02:50;;;;;;;0.00;0.00;;;6.80;99.90;;;;;;5053194;28;20452;-82
2021/12/06 04:05:16;;;;;;;0.70;0.20;;;6.70;99.90;;;;;;5052556;28;20028;-82
2021/12/06 04:07:45;;;;;;;0.40;0.40;;;6.70;99.90;;;;;;5053152;28;20025;-82
2021/12/06 04:10:11;;;;;;;0.00;0.00;;;6.60;99.90;;;;;;5052589;28;20035;-82
2021/12/06 04:12:38;;;;;;;0.55;0.32;;;6.60;99.90;;;;;;5050416;28;20120;-82
2021/12/06 04:15:07;;;;;;;0.00;0.00;;;6.60;99.90;;;;;;5052824;28;20028;-82
2021/12/06 04:17:34;;;;;;;0.00;0.00;;;6.60;99.90;;;;;;5052637;28;20024;-82
2021/12/06 04:20:00;;;;;;;0.05;0.05;;;6.70;99.90;;;;;;5052697;28;20021;-81
2021/12/06 04:22:26;;;;;;;0.10;0.10;;;6.70;99.90;;;;;;5053158;28;20032;-82
2021/12/06 04:24:52;;;;;;;0.00;0.00;;;6.70;99.90;;;;;;5052814;28;20029;-82
2021/12/06 04:27:19;;;;;;;0.00;0.00;;;6.70;99.90;;;;;;5052489;28;20041;-82
2021/12/06 04:29:51;;;;;;;0.70;0.43;;;6.70;99.90;;;;;;5047315;28;20022;-82
2021/12/06 04:32:18;;;;;;;0.43;0.10;;;6.70;99.90;;;;;;5032939;28;20029;-82
2021/12/06 04:34:44;;;;;;;0.10;0.10;;;6.60;99.90;;;;;;5031269;28;20037;-82
2021/12/06 04:37:11;;;;;;;0.00;0.00;;;6.60;99.90;;;;;;5032502;28;20014;-82
2021/12/06 04:39:37;;;;;;;0.03;0.03;;;6.60;99.90;;;;;;5033035;28;20017;-82
2021/12/06 04:42:04;;;;;;;6.03;1.65;;;6.60;99.90;;;;;;5032682;28;20036;-83
2021/12/06 04:44:30;;;;;;;0.40;0.40;;;6.60;99.90;;;;;;5032619;28;20026;-82
2021/12/06 04:46:57;;;;;;;0.00;0.00;;;6.50;99.90;;;;;;5032016;28;20385;-82
2021/12/06 04:49:26;;;;;;;0.00;0.00;;;6.50;99.90;;;;;;5031439;28;20030;-82
2021/12/06 04:51:53;;;;;;;0.00;0.00;;;6.50;99.90;;;;;;5032408;28;20021;-82
2021/12/06 04:54:23;;;;;;;0.22;0.22;;;6.50;99.90;;;;;;5032519;28;20560;-82
2021/12/06 04:56:53;;;;;;;3.70;1.00;;;6.50;99.90;;;;;;5032260;28;20036;-82
2021/12/06 04:59:26;;;;;;;6.55;1.08;;;6.60;99.90;;;;;;5046075;28;20033;-82
2021/12/06 05:01:54;;;;;;;0.00;0.00;;;6.70;99.90;;;;;;5051746;28;20017;-82
2021/12/06 05:04:28;;;;;;;0.93;0.93;;;6.70;99.90;;;;;;5050172;28;20115;-82
2021/12/06 05:06:59;;;;;;;0.00;0.00;;;6.70;99.90;;;;;;5051633;28;20024;-82
2021/12/06 05:09:31;;;;;;;0.00;0.00;;;6.70;99.90;;;;;;5052131;28;20040;-82
2021/12/06 05:11:58;;;;;;;0.00;0.00;;;6.70;99.90;;;;;;5054867;28;20024;-81
2021/12/06 05:14:25;;;;;;;0.00;0.00;;;6.70;99.90;;;;;;5056059;28;20036;-82
2021/12/06 05:16:54;;;;;;;0.50;0.08;;;6.70;99.90;;;;;;5056180;28;20032;-83
2021/12/06 05:19:20;;;;;;;0.00;0.00;;;6.70;99.90;;;;;;5055449;28;20029;-82
2021/12/06 05:21:46;;;;;;;0.00;0.00;;;6.60;99.90;;;;;;5055566;28;20025;-82
2021/12/06 05:24:11;;;;;;;0.00;0.00;;;6.60;99.90;;;;;;5055859;28;20086;-82
2021/12/06 05:26:37;;;;;;;0.20;0.15;;;6.50;99.90;;;;;;5055286;28;20045;-82
2021/12/06 05:29:05;;;;;;;0.00;0.00;;;6.60;99.90;;;;;;5054370;28;20033;-82
2021/12/06 05:31:33;;;;;;;0.13;0.13;;;6.50;99.90;;;;;;5055700;28;20053;-82
2021/12/06 05:34:03;;;;;;;0.00;0.00;;;6.50;99.90;;;;;;5055581;28;20037;-82
2021/12/06 05:36:28;;;;;;;0.10;0.10;;;6.40;99.90;;;;;;5054493;28;20422;-82
2021/12/06 05:38:55;;;;;;;0.00;0.00;;;6.40;99.90;;;;;;5055768;28;20025;-82
2021/12/06 05:41:21;;;;;;;0.00;0.00;;;6.30;99.90;;;;;;5055424;28;20036;-82
2021/12/06 05:43:48;;;;;;;0.00;0.00;;;6.30;99.90;;;;;;5055392;28;20024;-82
2021/12/06 05:46:14;;;;;;;0.00;0.00;;;6.30;99.90;;;;;;5055267;28;20114;-82
2021/12/06 05:48:40;;;;;;;0.00;0.00;;;6.30;99.90;;;;;;5055077;28;20032;-82
2021/12/06 05:51:06;;;;;;;0.10;0.10;;;6.30;99.90;;;;;;5054118;28;20377;-82
2021/12/06 05:53:33;;;;;;;0.00;0.00;;;6.30;99.90;;;;;;5055152;28;20135;-82
2021/12/06 05:55:58;;;;;;;0.00;0.00;;;6.30;99.90;;;;;;5054808;28;20025;-81
2021/12/06 05:58:26;;;;;;;0.28;0.15;;;6.30;99.90;;;;;;5047870;28;20090;-82
2021/12/06 06:00:53;;;;;;;0.00;0.00;;;6.20;99.90;;;;;;5054482;28;20021;-82
2021/12/06 06:03:20;;;;;;;0.25;0.25;;;6.20;99.90;;;;;;5054617;28;20063;-82
2021/12/06 06:05:48;;;;;;;0.00;0.00;;;6.10;99.90;;;;;;5054794;28;20052;-82
2021/12/06 06:08:16;;;;;;;0.00;0.00;;;6.10;99.90;;;;;;5045856;28;20052;-82
2021/12/06 06:10:41;;;;;;;0.28;0.25;;;6.10;99.90;;;;;;5034590;28;20033;-82
2021/12/06 06:13:08;;;;;;;0.80;0.80;;;6.10;99.90;;;;;;5034588;28;20120;-82
2021/12/06 06:15:35;;;;;;;0.00;0.00;;;6.00;99.90;;;;;;5034542;28;20029;-82
2021/12/06 06:18:01;;;;;;;0.40;0.25;;;6.00;99.90;;;;;;5044082;28;20033;-82
2021/12/06 06:20:30;;;;;;;0.00;0.00;;;6.00;99.90;;;;;;5054166;28;20107;-82
2021/12/06 06:22:56;;;;;;;0.10;0.10;;;6.00;99.90;;;;;;5053943;28;20111;-82
2021/12/06 06:25:22;;;;;;;2.38;1.17;;;6.00;99.90;;;;;;5054633;28;20113;-82
2021/12/06 06:27:48;;;;;;;0.10;0.10;;;6.00;99.90;;;;;;5054225;28;20492;-82
2021/12/06 06:30:14;;;;;;;0.00;0.00;;;6.00;99.90;;;;;;5054322;28;20069;-82
2021/12/06 06:32:41;;;;;;;0.00;0.00;;;6.00;99.90;;;;;;5054212;28;20025;-82
2021/12/06 06:35:08;;;;;;;0.00;0.00;;;6.00;99.90;;;;;;5052980;28;20021;-82
2021/12/06 06:37:34;;;;;;;0.00;0.00;;;6.00;99.90;;;;;;5039369;28;20028;-82
2021/12/06 06:40:00;;;;;;;0.00;0.00;;;5.90;99.90;;;;;;5054730;28;20479;-82
2021/12/06 06:42:27;;;;;;;0.00;0.00;;;5.90;99.90;;;;;;5053673;28;20179;-82
2021/12/06 06:44:54;;;;;;;0.52;0.52;;;5.80;99.90;;;;;;5053692;28;20021;-82
2021/12/06 06:47:21;;;;;;;0.00;0.00;;;5.70;99.90;;;;;;5044865;28;20048;-82
2021/12/06 06:49:47;;;;;;;14.15;1.55;;;5.70;99.90;;;;;;5047806;28;20025;-81
2021/12/06 06:52:13;;;;;;;0.00;0.00;;;5.70;99.90;;;;;;5049110;28;20061;-82
2021/12/06 06:54:39;;;;;;;0.00;0.00;;;5.60;99.90;;;;;;5052986;28;20017;-82
2021/12/06 06:57:05;;;;;;;0.05;0.05;;;5.60;99.90;;;;;;5049956;28;20388;-82
2021/12/06 06:59:30;;;;;;;0.00;0.00;;;5.60;99.90;;;;;;5052251;28;20117;-82
2021/12/06 07:01:57;;;;;;;0.30;0.30;;;5.50;99.90;;;;;;5050866;28;20460;-83
2021/12/06 07:04:23;;;;;;;0.13;0.13;;;5.50;99.90;;;;;;5063378;28;20035;-82
2021/12/06 07:06:49;;;;;;;0.17;0.15;;;5.60;99.90;;;;;;5057210;28;20376;-81
2021/12/06 07:09:15;;;;;;;0.00;0.00;;;5.60;99.90;;;;;;5054240;28;20033;-82
2021/12/06 07:11:44;;;;;;;0.38;0.25;;;5.60;99.90;;;;;;5065320;28;20032;-82
2021/12/06 07:14:10;;;;;;;0.10;0.10;;;5.60;99.90;;;;;;5060689;28;20110;-82
2021/12/06 07:16:36;;;;;;;1.45;0.80;;;5.60;99.90;;;;;;5058750;28;20025;-82
2021/12/06 07:19:03;;;;;;;0.00;0.00;;;5.70;99.90;;;;;;5067623;28;20020;-82
2021/12/06 07:21:28;;;;;;;0.80;0.80;;;5.80;99.90;;;;;;5053422;28;20477;-81
2021/12/06 07:23:54;;;;;;;0.13;0.13;;;5.80;99.90;;;;;;5051071;28;20025;-81
2021/12/06 07:26:21;;;;;;;0.20;0.20;;;5.90;99.90;;;;;;5053538;28;20058;-81
2021/12/06 07:28:50;;;;;;;0.00;0.00;;;5.90;99.90;;;;;;5035202;28;20030;-81
2021/12/06 07:31:17;;;;;;;0.00;0.00;;;6.00;99.90;;;;;;5047536;28;20044;-81
2021/12/06 07:33:47;;;;;;;0.38;0.38;;;6.10;99.90;;;;;;5056388;28;20434;-78
2021/12/06 07:36:12;;;;;;;0.00;0.00;;;6.10;99.90;;;;;;5038222;28;20135;-77
2021/12/06 07:38:39;;;;;;;0.00;0.00;;;6.10;99.90;;;;;;5054937;28;20100;-78
2021/12/06 07:41:12;;;;;;;0.10;0.10;;;6.20;99.90;;;;;;5056130;28;20500;-78
2021/12/06 07:43:38;;;;;;;;;;;6.30;99.90;;;;;;5065927;28;20019;-78
2021/12/06 07:46:05;;;;;;;0.15;0.15;;;6.40;99.90;;;;;;5062488;28;19913;-78
2021/12/06 07:48:31;;;;;;;0.00;0.00;;;6.40;99.90;;;;;;5062585;28;20114;-78
2021/12/06 07:50:59;;;;;;;0.00;0.00;;;6.50;99.90;;;;;;5055009;28;20025;-75
2021/12/06 07:53:26;;;;;;;0.00;0.00;;;6.60;99.90;;;;;;5067163;28;20422;-76
2021/12/06 07:55:52;;;;;;;0.00;0.00;;;6.70;99.90;;;;;;5052044;28;20029;-76
2021/12/06 07:58:18;;;;;;;0.00;0.00;;;6.70;99.90;;;;;;5049879;28;20028;-75
2021/12/06 08:00:46;;;;;;;4.85;1.08;;;6.80;99.90;;;;;;5043810;28;20029;-75
2021/12/06 08:03:13;;;;;;;0.22;0.20;;;6.80;99.90;;;;;;5045702;28;20396;-75
2021/12/06 08:05:41;;;;;;;0.13;0.13;;;6.80;99.90;;;;;;5054712;28;20052;-75
2021/12/06 08:08:15;;;;;;;0.00;0.00;;;6.80;99.90;;;;;;5049943;28;20125;-77
2021/12/06 08:10:44;;;;;;;3.75;1.38;;;6.80;99.90;;;;;;5045475;28;20021;-76
2021/12/06 08:13:11;;;;;;;0.25;0.25;;;6.80;99.90;;;;;;5049921;28;20037;-79
2021/12/06 08:15:38;;;;;;;1.30;0.60;;;6.80;99.90;;;;;;5045446;28;20039;-80
2021/12/06 08:18:05;;;;;;;0.00;0.00;;;6.90;99.90;;;;;;5043598;28;20029;-79
2021/12/06 08:20:30;;;;;;;0.85;0.40;;;6.90;99.90;;;;;;5045885;28;20028;-79
2021/12/06 08:22:56;;;;;;;1.27;1.02;;;7.00;99.90;;;;;;5049715;28;20040;-78
2021/12/06 08:25:22;;;;;;;0.45;0.45;;;7.00;99.90;;;;;;5050009;28;20029;-80
2021/12/06 08:27:48;;;;;;;3.72;1.65;;;7.00;99.90;;;;;;5046336;28;21624;-79
2021/12/06 08:30:19;;;;;;;1.38;0.55;;;7.00;99.90;;;;;;5048416;28;20407;-75
2021/12/06 08:32:47;;;;;;;2.42;1.52;;;7.00;99.90;;;;;;5041636;28;20033;-77
2021/12/06 08:35:13;;;;;;;0.38;0.35;;;7.00;99.90;;;;;;5050490;28;20032;-79
2021/12/06 08:37:38;;;;;;;6.65;0.98;;;7.00;99.90;;;;;;5046554;28;20082;-80
2021/12/06 08:40:05;;;;;;;0.10;0.10;;;7.10;99.90;;;;;;5050929;28;20032;-80
2021/12/06 08:42:31;;;;;;;14.13;0.68;;;7.20;99.90;;;;;;5050126;28;20041;-77
2021/12/06 08:44:57;;;;;;;0.17;0.17;;;7.30;99.90;;;;;;5054252;28;20028;-77
2021/12/06 08:47:24;;;;;;;0.55;0.55;;;7.40;99.90;;;;;;5055681;28;20044;-79
2021/12/06 08:49:51;;;;;;;0.85;0.68;;;7.40;99.90;;;;;;5052843;28;20043;-78
2021/12/06 08:52:17;;;;;;;0.40;0.38;;;7.40;99.90;;;;;;5057526;28;20037;-78
2021/12/06 08:54:43;;;;;;;0.10;0.10;;;7.40;99.90;;;;;;5048231;28;20427;-79
2021/12/06 08:57:10;;;;;;;0.00;0.00;;;7.40;99.90;;;;;;5052058;28;20029;-78
2021/12/06 08:59:37;;;;;;;9.98;1.42;;;7.40;99.90;;;;;;5053440;28;20060;-78
2021/12/06 09:02:04;;;;;;;1.02;1.00;;;7.50;99.90;;;;;;5052731;28;20391;-77
2021/12/06 09:04:34;;;;;;;0.00;0.00;;;7.50;99.90;;;;;;5051459;28;20025;-76
2021/12/06 09:07:01;;;;;;;55.60;2.15;;;7.60;99.90;;;;;;5052840;28;20108;-77
2021/12/06 09:09:27;;;;;;;0.00;0.00;;;7.70;99.90;;;;;;5055210;28;20032;-78
2021/12/06 09:11:55;;;;;;;0.17;0.15;;;7.80;99.90;;;;;;5051330;28;20163;-78
2021/12/06 09:14:21;;;;;;;0.00;0.00;;;7.80;99.90;;;;;;5055441;28;20116;-75
2021/12/06 09:16:47;;;;;;;0.13;0.13;;;7.90;99.90;;;;;;5049097;28;20469;-79
2021/12/06 09:19:15;;;;;;;0.80;0.65;;;8.10;99.90;;;;;;5061654;28;20516;-77
2021/12/06 09:21:43;;;;;;;0.10;0.03;;;8.10;99.90;;;;;;5061351;28;20017;-75
2021/12/06 09:24:12;;;;;;;2.50;1.08;;;8.20;99.90;;;;;;5054816;28;20044;-77
2021/12/06 09:26:38;;;;;;;0.30;0.30;;;8.30;99.90;;;;;;5054157;28;20117;-75
2021/12/06 09:29:05;;;;;;;0.73;0.73;;;8.40;99.90;;;;;;5059504;28;20052;-78
2021/12/06 09:31:32;;;;;;;0.20;0.15;;;8.50;99.90;;;;;;5063085;28;20031;-76
2021/12/06 09:33:58;;;;;;;0.43;0.43;;;8.60;99.90;;;;;;5057143;28;20117;-76
2021/12/06 09:36:25;;;;;;;0.08;0.08;;;8.60;99.90;;;;;;5051431;28;20144;-76
2021/12/06 09:38:51;;;;;;;0.50;0.35;;;8.60;99.90;;;;;;5051792;28;20499;-78
2021/12/06 09:41:23;;;;;;;0.15;0.15;;;8.60;99.90;;;;;;5055813;28;20032;-78
2021/12/06 09:43:51;;;;;;;0.05;0.05;;;8.70;99.90;;;;;;5059934;28;20025;-79
2021/12/06 09:46:18;;;;;;;0.47;0.47;;;8.70;99.90;;;;;;5051861;28;20029;-78
2021/12/06 09:48:45;;;;;;;5.22;2.30;;;8.80;99.90;;;;;;5052055;28;20119;-77
2021/12/06 09:51:17;;;;;;;1.10;1.10;;;8.80;99.90;;;;;;5052705;28;20029;-76
2021/12/06 09:53:44;;;;;;;0.47;0.45;;;8.80;99.90;;;;;;5053322;28;20032;-78
2021/12/06 09:56:27;;;;;;;1.65;1.20;;;8.90;99.90;;;;;;5054038;28;20045;-78
2021/12/06 09:58:54;;;;;;;1.48;1.38;;;9.00;99.90;;;;;;5056151;28;20039;-76
2021/12/06 10:01:24;;;;;;;0.10;0.10;;;9.20;99.90;;;;;;5054289;28;20025;-78
2021/12/06 10:03:53;;;;;;;0.38;0.32;;;9.40;99.90;;;;;;5050940;28;20060;-78
2021/12/06 10:06:20;;;;;;;10.30;1.77;;;9.50;99.90;;;;;;5054703;28;20029;-78
2021/12/06 10:08:49;;;;;;;1.20;1.10;;;9.50;99.90;;;;;;5051463;28;20051;-78
2021/12/06 10:11:17;;;;;;;0.00;0.00;;;9.50;99.90;;;;;;5052804;28;20021;-77
2021/12/06 10:13:44;;;;;;;0.00;0.00;;;9.50;99.90;;;;;;5050698;28;20029;-78
2021/12/06 10:16:10;;;;;;;0.10;0.10;;;9.50;99.90;;;;;;5060755;28;20028;-78
2021/12/06 10:18:37;;;;;;;8.38;1.17;;;9.50;99.90;;;;;;5058840;28;20491;-78
2021/12/06 10:21:04;;;;;;;0.30;0.30;;;9.50;99.90;;;;;;5069005;28;20440;-79
2021/12/06 10:23:30;;;;;;;0.22;0.22;;;9.50;99.90;;;;;;5041132;28;20484;-76
2021/12/06 10:25:57;;;;;;;3.03;0.80;;;9.50;99.90;;;;;;5052362;28;20029;-77
2021/12/06 10:28:27;;;;;;;1.65;0.30;;;9.50;99.90;;;;;;5052211;28;20043;-78
2021/12/06 10:30:57;;;;;;;0.70;0.70;;;9.60;99.90;;;;;;5055341;28;20083;-78
2021/12/06 10:33:28;;;;;;;1.38;0.60;;;9.70;99.90;;;;;;5066536;28;20056;-76
2021/12/06 10:36:00;;;;;;;0.10;0.10;;;9.80;99.90;;;;;;5054700;28;20133;-80
2021/12/06 10:38:33;;;;;;;0.38;0.08;;;9.90;99.90;;;;;;5057402;28;20044;-78
2021/12/06 10:41:03;;;;;;;0.30;0.30;;;10.10;99.90;;;;;;5064275;28;20021;-78
2021/12/06 10:43:29;;;;;;;0.00;0.00;;;10.10;99.90;;;;;;5052851;28;20913;-76
2021/12/06 10:45:57;;;;;;;0.17;0.15;;;10.00;99.90;;;;;;5052216;28;20432;-77
2021/12/06 10:48:27;;;;;;;5.18;2.53;;;9.90;99.90;;;;;;5052206;28;20392;-77
2021/12/06 10:50:53;;;;;;;0.45;0.40;;;9.80;99.90;;;;;;5049610;28;20036;-78
2021/12/06 10:53:49;;;;;;;0.28;0.28;;;9.70;99.90;;;;;;5052434;28;20079;-78
2021/12/06 10:56:20;;;;;;;9.52;1.65;;;9.60;99.90;;;;;;5048917;28;20060;-78
2021/12/06 10:58:50;;;;;;;0.00;0.00;;;9.70;99.90;;;;;;5050164;28;20016;-76
2021/12/06 11:01:34;;;;;;;0.00;0.00;;;9.70;99.90;;;;;;5048986;28;20104;-75
2021/12/06 11:04:03;;;;;;;0.00;0.00;;;9.70;99.90;;;;;;5045645;28;20028;-76
2021/12/06 11:06:42;;;;;;;0.00;0.00;;;9.70;99.90;;;;;;5050299;28;20767;-75
2021/12/06 11:09:10;;;;;;;0.10;0.10;;;9.70;99.90;;;;;;5045582;28;20033;-76
2021/12/06 11:11:42;;;;;;;0.00;0.00;;;9.90;99.90;;;;;;5050852;28;20029;-76
2021/12/06 11:14:13;;;;;;;0.80;0.80;;;10.00;99.90;;;;;;5052564;28;20396;-76
2021/12/06 11:16:43;;;;;;;1.20;0.25;;;10.10;99.90;;;;;;5055928;28;20478;-75
2021/12/06 11:19:10;;;;;;;0.00;0.00;;;10.10;99.90;;;;;;5042916;28;20036;-77
2021/12/06 11:21:52;;;;;;;0.30;0.30;;;10.00;99.90;;;;;;5060130;28;20044;-76
2021/12/06 11:24:17;;;;;;;0.10;0.10;;;10.00;99.90;;;;;;5063860;28;20112;-75
2021/12/06 11:26:49;;;;;;;0.10;0.10;;;9.90;99.90;;;;;;5049861;28;20152;-75
2021/12/06 11:29:23;;;;;;;0.32;0.30;;;9.80;99.90;;;;;;5052271;28;20039;-77
2021/12/06 11:31:52;;;;;;;0.40;0.40;;;9.70;99.90;;;;;;5052246;28;20036;-76
2021/12/06 11:34:18;;;;;;;0.00;0.00;;;9.50;99.90;;;;;;5051808;28;20041;-76
2021/12/06 11:36:44;;;;;;;1.45;0.28;;;9.50;99.90;;;;;;5051510;28;20102;-75
2021/12/06 11:39:14;;;;;;;0.00;0.00;;;9.50;99.90;;;;;;5055424;28;20507;-76
2021/12/06 11:41:42;;;;;;;0.00;0.00;;;9.50;99.90;;;;;;5054952;28;20033;-76
2021/12/06 11:44:20;;;;;;;0.00;0.00;;;9.50;99.90;;;;;;5061396;28;20052;-76
2021/12/06 11:46:46;;;;;;;0.00;0.00;;;9.60;99.90;;;;;;5045025;28;20040;-75
2021/12/06 11:49:21;;;;;;;3.15;0.75;;;9.50;99.90;;;;;;5054185;28;20406;-75
2021/12/06 11:51:50;;;;;;;0.17;0.17;;;9.50;99.90;;;;;;5050465;28;20576;-75
2021/12/06 11:54:17;;;;;;;0.20;0.20;;;9.50;99.90;;;;;;5066550;28;20041;-77
2021/12/06 11:56:45;;;;;;;0.00;0.00;;;9.50;99.90;;;;;;5054144;28;20029;-77
2021/12/06 11:59:15;;;;;;;0.32;0.32;;;9.40;99.90;;;;;;5047168;28;20043;-77
2021/12/06 12:01:53;;;;;;;5.60;1.80;;;9.30;99.90;;;;;;5054022;28;20029;-77
2021/12/06 12:04:25;;;;;;;1.38;0.75;;;9.20;99.90;;;;;;5048151;28;20071;-77
2021/12/06 12:07:00;;;;;;;0.52;0.52;;;9.20;99.90;;;;;;5051703;28;20067;-77
2021/12/06 12:09:35;;;;;;;0.20;0.20;;;9.20;99.90;;;;;;5053484;28;20085;-75
2021/12/06 12:12:20;;;;;;;0.95;0.95;;;9.30;99.90;;;;;;5050516;28;20039;-77
2021/12/06 12:14:54;;;;;;;0.47;0.47;;;9.30;99.90;;;;;;5057425;28;20055;-77
2021/12/06 12:17:22;;;;;;;1.85;0.95;;;9.30;99.90;;;;;;5052692;28;20037;-77
2021/12/06 12:19:50;;;;;;;0.05;0.05;;;9.30;99.90;;;;;;5048992;28;20501;-79
2021/12/06 12:22:17;;;;;;;0.30;0.30;;;9.30;99.90;;;;;;5060741;28;20025;-78
2021/12/06 12:24:47;;;;;;;0.32;0.32;;;9.30;99.90;;;;;;5067409;28;20399;-77
2021/12/06 12:27:31;;;;;;;0.70;0.17;;;9.30;99.90;;;;;;5058444;28;20100;-77
2021/12/06 12:29:59;;;;;;;11.50;2.75;;;9.30;99.90;;;;;;5059199;28;20055;-76
2021/12/06 12:32:27;;;;;;;0.40;0.40;;;9.30;99.90;;;;;;5054570;28;20033;-77
2021/12/06 12:34:55;;;;;;;0.38;0.38;;;9.30;99.90;;;;;;5055798;28;20029;-82
2021/12/06 12:37:22;;;;;;;0.63;0.63;;;9.20;99.90;;;;;;5058336;28;20508;-78
2021/12/06 12:40:06;;;;;;;0.30;0.30;;;9.20;99.90;;;;;;5060370;28;20082;-78
2021/12/06 12:42:32;;;;;;;0.00;0.00;;;9.40;99.90;;;;;;5056150;28;20034;-78
2021/12/06 12:45:03;;;;;;;0.10;0.10;;;9.40;99.90;;;;;;5052256;28;20079;-77
2021/12/06 12:47:35;;;;;;;0.32;0.32;;;9.40;99.90;;;;;;5042510;28;20032;-77
2021/12/06 12:50:12;;;;;;;0.10;0.10;;;9.30;99.90;;;;;;5041802;28;20039;-76
2021/12/06 12:52:40;;;;;;;2.17;1.70;;;9.30;99.90;;;;;;5037664;28;20029;-79
2021/12/06 12:55:30;;;;;;;2.67;1.38;;;9.20;99.90;;;;;;5048478;28;20025;-78
2021/12/06 12:58:19;;;;;;;0.00;0.00;;;9.20;99.90;;;;;;5053412;28;20029;-78
2021/12/06 13:01:08;;;;;;;0.00;0.00;;;9.20;99.90;;;;;;5040114;28;20029;-77
2021/12/06 13:03:41;;;;;;;0.00;0.00;;;9.20;99.90;;;;;;5045280;28;20033;-77
2021/12/06 13:06:37;;;;;;;0.10;0.10;;;9.20;99.90;;;;;;5041109;28;20044;-77
2021/12/06 13:09:26;;;;;;;20.83;0.65;;;9.30;99.90;;;;;;5042150;28;20037;-78
2021/12/06 13:12:01;;;;;;;0.05;0.05;;;9.30;99.90;;;;;;5041769;28;20029;-76
2021/12/06 13:14:34;;;;;;;1.77;1.08;;;9.20;99.90;;;;;;5043771;28;20039;-79
2021/12/06 13:17:05;;;;;;;0.00;0.00;;;9.20;99.90;;;;;;5045732;28;20070;-78
2021/12/06 13:19:42;;;;;;;0.00;0.00;;;9.20;99.90;;;;;;5051467;28;20727;-78